Time,TemperatureF,DewpointF,PressureIn,WindDirection,WindDirectionDegrees,WindSpeedMPH,WindSpeedGustMPH,Humidity,HourlyPrecipIn,Conditions,Clouds,dailyrainin,SoftwareType,DateUTC
2013-10-13 00:23:00,53.7,49.0,30.31,NE,51,1.0,5.0,84,0.00,,,0.00,weatherlink.com 1.10,2013-10-13 04:23:00,
2013-10-13 00:38:00,53.6,49.0,30.32,ENE,72,3.0,5.0,84,0.00,,,0.00,weatherlink.com 1.10,2013-10-13 04:38:00,
2013-10-13 00:53:00,53.6,49.0,30.32,NE,55,2.0,7.0,84,0.00,,,0.00,weatherlink.com 1.10,2013-10-13 04:53:00,
2013-10-13 01:08:00,53.4,49.0,30.32,NE,51,3.0,5.0,85,0.00,,,0.00,weatherlink.com 1.10,2013-10-13 05:08:00,
2013-10-13 01:23:00,53.1,49.0,30.32,NNE,13,2.0,7.0,85,0.00,,,0.00,weatherlink.com 1.10,2013-10-13 05:23:00,
2013-10-13 01:38:00,53.1,48.0,30.32,NE,49,3.0,7.0,84,0.00,,,0.00,weatherlink.com 1.10,2013-10-13 05:38:00,
2013-10-13 01:53:00,52.9,49.0,30.32,NE,53,2.0,7.0,85,0.00,,,0.00,weatherlink.com 1.10,2013-10-13 05:53:00,
2013-10-13 02:08:00,52.6,48.0,30.32,ENE,72,3.0,5.0,85,0.00,,,0.00,weatherlink.com 1.10,2013-10-13 06:08:00,
2013-10-13 02:23:00,52.3,48.0,30.32,WSW,244,4.0,7.0,85,0.00,,,0.00,weatherlink.com 1.10,2013-10-13 06:23:00,
2013-10-13 02:38:00,52.4,48.0,30.32,ENE,65,3.0,9.0,85,0.00,,,0.00,weatherlink.com 1.10,2013-10-13 06:38:00,
2013-10-13 02:53:00,51.7,48.0,30.32,ENE,58,3.0,7.0,86,0.00,,,0.00,weatherlink.com 1.10,2013-10-13 06:53:00,
2013-10-13 03:08:00,51.4,48.0,30.32,ENE,65,3.0,8.0,87,0.00,,,0.00,weatherlink.com 1.10,2013-10-13 07:08:00,
2013-10-13 03:23:00,51.6,48.0,30.32,ENE,66,5.0,9.0,86,0.00,,,0.00,weatherlink.com 1.10,2013-10-13 07:23:00,
2013-10-13 03:39:00,51.6,48.0,30.32,NE,50,4.0,6.0,86,0.00,,,0.00,weatherlink.com 1.10,2013-10-13 07:39:00,
2013-10-13 03:54:00,51.2,48.0,30.32,ENE,61,2.0,7.0,87,0.00,,,0.00,weatherlink.com 1.10,2013-10-13 07:54:00,
2013-10-13 04:09:00,51.4,48.0,30.32,NE,50,4.0,7.0,87,0.00,,,0.00,weatherlink.com 1.10,2013-10-13 08:09:00,
2013-10-13 04:24:00,51.5,48.0,30.32,NE,48,2.0,7.0,86,0.00,,,0.00,weatherlink.com 1.10,2013-10-13 08:24:00,
2013-10-13 04:39:00,51.1,47.0,30.32,NE,55,3.0,8.0,87,0.00,,,0.00,weatherlink.com 1.10,2013-10-13 08:39:00,
2013-10-13 04:54:00,50.7,47.0,30.33,NE,50,3.0,5.0,88,0.00,,,0.00,weatherlink.com 1.10,2013-10-13 08:54:00,
2013-10-13 05:09:00,50.9,48.0,30.33,NE,48,4.0,6.0,88,0.00,,,0.00,weatherlink.com 1.10,2013-10-13 09:09:00,
2013-10-13 05:24:00,50.7,47.0,30.33,ENE,61,4.0,5.0,87,0.00,,,0.00,weatherlink.com 1.10,2013-10-13 09:24:00,
2013-10-13 05:39:00,50.4,47.0,30.33,ENE,64,2.0,7.0,88,0.00,,,0.00,weatherlink.com 1.10,2013-10-13 09:39:00,
2013-10-13 05:54:00,49.6,46.0,30.33,NE,40,0.0,4.0,88,0.00,,,0.00,weatherlink.com 1.10,2013-10-13 09:54:00,
2013-10-13 06:09:00,47.8,45.0,30.34,ENE,58,0.0,3.0,89,0.00,,,0.00,weatherlink.com 1.10,2013-10-13 10:09:00,
2013-10-13 06:24:00,46.6,45.0,30.33,ENE,70,1.0,4.0,93,0.00,,,0.00,weatherlink.com 1.10,2013-10-13 10:24:00,
2013-10-13 06:39:00,46.7,45.0,30.34,SSW,196,0.0,3.0,92,0.00,,,0.00,weatherlink.com 1.10,2013-10-13 10:39:00,
2013-10-13 06:54:00,45.6,44.0,30.34,SSW,196,0.0,0.0,92,0.00,,,0.00,weatherlink.com 1.10,2013-10-13 10:54:00,
2013-10-13 07:09:00,44.9,43.0,30.34,SSW,196,0.0,1.0,93,0.00,,,0.00,weatherlink.com 1.10,2013-10-13 11:09:00,
2013-10-13 07:24:00,44.6,43.0,30.34,SSW,196,0.0,0.0,94,0.00,,,0.00,weatherlink.com 1.10,2013-10-13 11:24:00,
2013-10-13 07:39:00,44.6,43.0,30.34,SSE,148,0.0,3.0,95,0.00,,,0.00,weatherlink.com 1.10,2013-10-13 11:39:00,
2013-10-13 07:54:00,47.2,46.0,30.34,NE,46,2.0,7.0,97,0.00,,,0.00,weatherlink.com 1.10,2013-10-13 11:54:00,
2013-10-13 08:09:00,48.2,46.0,30.34,South,173,0.0,3.0,90,0.00,,,0.00,weatherlink.com 1.10,2013-10-13 12:09:00,
2013-10-13 08:24:00,47.7,46.0,30.35,South,186,1.0,3.0,92,0.00,,,0.00,weatherlink.com 1.10,2013-10-13 12:24:00,
2013-10-13 08:39:00,48.4,47.0,30.34,South,183,0.0,2.0,93,0.00,,,0.00,weatherlink.com 1.10,2013-10-13 12:39:00,
2013-10-13 08:54:00,50.4,49.0,30.34,South,183,0.0,1.0,93,0.00,,,0.00,weatherlink.com 1.10,2013-10-13 12:54:00,
2013-10-13 09:09:00,53.3,50.0,30.34,South,183,1.0,3.0,89,0.00,,,0.00,weatherlink.com 1.10,2013-10-13 13:09:00,
2013-10-13 09:24:00,55.9,50.0,30.34,NE,42,1.0,5.0,81,0.00,,,0.00,weatherlink.com 1.10,2013-10-13 13:24:00,
2013-10-13 09:39:00,56.3,50.0,30.35,NNE,19,6.0,10.0,79,0.00,,,0.00,weatherlink.com 1.10,2013-10-13 13:39:00,
2013-10-13 09:54:00,56.8,50.0,30.35,NE,56,6.0,9.0,77,0.00,,,0.00,weatherlink.com 1.10,2013-10-13 13:54:00,
2013-10-13 10:09:00,57.8,50.0,30.35,ENE,67,7.0,9.0,74,0.00,,,0.00,weatherlink.com 1.10,2013-10-13 14:09:00,
2013-10-13 10:24:00,59.0,51.0,30.35,ENE,69,5.0,7.0,74,0.00,,,0.00,weatherlink.com 1.10,2013-10-13 14:24:00,
2013-10-13 10:39:00,60.4,51.0,30.35,North,11,1.0,5.0,71,0.00,,,0.00,weatherlink.com 1.10,2013-10-13 14:39:00,
2013-10-13 10:54:00,61.6,52.0,30.35,SW,216,0.0,10.0,71,0.00,,,0.00,weatherlink.com 1.10,2013-10-13 14:54:00,
2013-10-13 11:09:00,64.3,52.0,30.34,ESE,103,1.0,3.0,65,0.00,,,0.00,weatherlink.com 1.10,2013-10-13 15:09:00,
2013-10-13 11:25:00,64.7,52.0,30.34,NE,48,3.0,6.0,63,0.00,,,0.00,weatherlink.com 1.10,2013-10-13 15:25:00,
2013-10-13 11:40:00,65.0,51.0,30.34,NE,50,2.0,7.0,61,0.00,,,0.00,weatherlink.com 1.10,2013-10-13 15:40:00,
2013-10-13 11:55:00,67.8,55.0,30.33,South,184,3.0,4.0,63,0.00,,,0.00,weatherlink.com 1.10,2013-10-13 15:55:00,
2013-10-13 12:10:00,70.6,54.0,30.33,ENE,65,4.0,4.0,57,0.00,,,0.00,weatherlink.com 1.10,2013-10-13 16:10:00,
2013-10-13 12:25:00,69.8,53.0,30.32,SW,222,3.0,3.0,55,0.00,,,0.00,weatherlink.com 1.10,2013-10-13 16:25:00,
2013-10-13 12:40:00,72.9,55.0,30.32,SW,221,0.0,4.0,54,0.00,,,0.00,weatherlink.com 1.10,2013-10-13 16:40:00,
2013-10-13 12:55:00,74.9,55.0,30.30,SW,223,1.0,3.0,50,0.00,,,0.00,weatherlink.com 1.10,2013-10-13 16:55:00,
2013-10-13 13:10:00,72.2,52.0,30.30,ENE,73,1.0,3.0,49,0.00,,,0.00,weatherlink.com 1.10,2013-10-13 17:10:00,
2013-10-13 13:25:00,70.3,51.0,30.29,NE,36,4.0,7.0,50,0.00,,,0.00,weatherlink.com 1.10,2013-10-13 17:25:00,
2013-10-13 13:40:00,69.0,50.0,30.27,NE,44,7.0,15.0,51,0.00,,,0.00,weatherlink.com 1.10,2013-10-13 17:40:00,
2013-10-13 13:55:00,69.6,49.0,30.27,NE,44,3.0,11.0,49,0.00,,,0.00,weatherlink.com 1.10,2013-10-13 17:55:00,
2013-10-13 14:10:00,70.3,49.0,30.27,ENE,63,9.0,12.0,47,0.00,,,0.00,weatherlink.com 1.10,2013-10-13 18:10:00,
2013-10-13 14:25:00,70.8,51.0,30.26,NE,53,4.0,8.0,49,0.00,,,0.00,weatherlink.com 1.10,2013-10-13 18:25:00,
2013-10-13 14:40:00,70.6,49.0,30.25,NNE,32,4.0,11.0,47,0.00,,,0.00,weatherlink.com 1.10,2013-10-13 18:40:00,
2013-10-13 14:55:00,70.3,48.0,30.25,NNE,12,6.0,10.0,46,0.00,,,0.00,weatherlink.com 1.10,2013-10-13 18:55:00,
2013-10-13 15:10:00,69.9,50.0,30.25,ENE,63,4.0,9.0,49,0.00,,,0.00,weatherlink.com 1.10,2013-10-13 19:10:00,
2013-10-13 15:25:00,69.7,48.0,30.25,ENE,63,4.0,11.0,46,0.00,,,0.00,weatherlink.com 1.10,2013-10-13 19:25:00,
2013-10-13 15:40:00,70.3,48.0,30.25,NE,52,5.0,7.0,46,0.00,,,0.00,weatherlink.com 1.10,2013-10-13 19:40:00,
2013-10-13 15:55:00,69.5,48.0,30.25,ENE,59,5.0,10.0,47,0.00,,,0.00,weatherlink.com 1.10,2013-10-13 19:55:00,
2013-10-13 16:10:00,68.6,47.0,30.25,ENE,74,2.0,10.0,47,0.00,,,0.00,weatherlink.com 1.10,2013-10-13 20:10:00,
2013-10-13 16:25:00,67.9,48.0,30.25,NE,36,4.0,5.0,49,0.00,,,0.00,weatherlink.com 1.10,2013-10-13 20:25:00,
2013-10-13 16:40:00,67.0,48.0,30.25,ENE,61,2.0,6.0,51,0.00,,,0.00,weatherlink.com 1.10,2013-10-13 20:40:00,
2013-10-13 16:55:00,65.9,48.0,30.25,NE,53,2.0,10.0,52,0.00,,,0.00,weatherlink.com 1.10,2013-10-13 20:55:00,
2013-10-13 17:10:00,65.9,49.0,30.25,NE,45,1.0,4.0,54,0.00,,,0.00,weatherlink.com 1.10,2013-10-13 21:10:00,
2013-10-13 17:25:00,64.3,48.0,30.25,NE,42,0.0,5.0,55,0.00,,,0.00,weatherlink.com 1.10,2013-10-13 21:25:00,
2013-10-13 17:40:00,62.9,48.0,30.25,NE,42,2.0,3.0,59,0.00,,,0.00,weatherlink.com 1.10,2013-10-13 21:40:00,
2013-10-13 17:55:00,62.6,48.0,30.25,NE,42,0.0,2.0,60,0.00,,,0.00,weatherlink.com 1.10,2013-10-13 21:55:00,
2013-10-13 18:10:00,61.8,48.0,30.26,ENE,61,3.0,3.0,61,0.00,,,0.00,weatherlink.com 1.10,2013-10-13 22:10:00,
2013-10-13 18:25:00,61.2,48.0,30.26,ENE,58,1.0,4.0,63,0.00,,,0.00,weatherlink.com 1.10,2013-10-13 22:25:00,
2013-10-13 18:40:00,60.1,48.0,30.27,ENE,59,1.0,4.0,65,0.00,,,0.00,weatherlink.com 1.10,2013-10-13 22:40:00,
2013-10-13 18:55:00,59.4,48.0,30.27,ENE,63,2.0,5.0,66,0.00,,,0.00,weatherlink.com 1.10,2013-10-13 22:55:00,
2013-10-13 19:10:00,59.4,48.0,30.27,ENE,61,2.0,4.0,66,0.00,,,0.00,weatherlink.com 1.10,2013-10-13 23:10:00,
2013-10-13 19:25:00,58.1,48.0,30.27,NE,35,2.0,5.0,69,0.00,,,0.00,weatherlink.com 1.10,2013-10-13 23:25:00,
2013-10-13 19:40:00,58.4,48.0,30.27,NE,49,2.0,6.0,69,0.00,,,0.00,weatherlink.com 1.10,2013-10-13 23:40:00,
2013-10-13 19:55:00,56.6,48.0,30.27,NE,48,2.0,3.0,73,0.00,,,0.00,weatherlink.com 1.10,2013-10-13 23:55:00,
2013-10-13 20:10:00,56.2,48.0,30.27,ENE,57,2.0,4.0,73,0.00,,,0.00,weatherlink.com 1.10,2013-10-14 00:10:00,
2013-10-13 20:25:00,54.3,47.0,30.27,ENE,57,2.0,3.0,77,0.00,,,0.00,weatherlink.com 1.10,2013-10-14 00:25:00,
2013-10-13 20:40:00,53.4,47.0,30.28,ENE,67,1.0,4.0,79,0.00,,,0.00,weatherlink.com 1.10,2013-10-14 00:40:00,
2013-10-13 20:55:00,52.7,47.0,30.28,ENE,59,0.0,3.0,81,0.00,,,0.00,weatherlink.com 1.10,2013-10-14 00:55:00,
2013-10-13 21:10:00,51.6,47.0,30.28,ENE,59,2.0,2.0,84,0.00,,,0.00,weatherlink.com 1.10,2013-10-14 01:10:00,
2013-10-13 21:25:00,51.0,47.0,30.28,ENE,59,1.0,2.0,85,0.00,,,0.00,weatherlink.com 1.10,2013-10-14 01:25:00,
2013-10-13 21:40:00,51.4,47.0,30.28,ENE,59,0.0,2.0,84,0.00,,,0.00,weatherlink.com 1.10,2013-10-14 01:40:00,
2013-10-13 21:55:00,51.5,47.0,30.28,ENE,59,0.0,2.0,84,0.00,,,0.00,weatherlink.com 1.10,2013-10-14 01:55:00,
2013-10-13 22:10:00,51.3,47.0,30.28,ENE,59,1.0,2.0,84,0.00,,,0.00,weatherlink.com 1.10,2013-10-14 02:10:00,
2013-10-13 22:25:00,51.2,47.0,30.28,ENE,59,2.0,3.0,84,0.00,,,0.00,weatherlink.com 1.10,2013-10-14 02:25:00,
2013-10-13 22:40:00,49.8,46.0,30.28,ENE,62,1.0,2.0,88,0.00,,,0.00,weatherlink.com 1.10,2013-10-14 02:40:00,
2013-10-13 22:55:00,49.2,46.0,30.28,ENE,62,1.0,2.0,89,0.00,,,0.00,weatherlink.com 1.10,2013-10-14 02:55:00,
2013-10-13 23:10:00,48.5,46.0,30.28,ENE,62,0.0,2.0,91,0.00,,,0.00,weatherlink.com 1.10,2013-10-14 03:10:00,
2013-10-13 23:25:00,48.3,46.0,30.28,SSE,156,0.0,1.0,91,0.00,,,0.00,weatherlink.com 1.10,2013-10-14 03:25:00,
2013-10-13 23:40:00,48.4,46.0,30.27,ENE,72,0.0,3.0,92,0.00,,,0.00,weatherlink.com 1.10,2013-10-14 03:40:00,
2013-10-13 23:55:00,49.6,47.0,30.27,East,92,1.0,1.0,91,0.00,,,0.00,weatherlink.com 1.10,2013-10-14 03:55:00,